Accueil
METAR-TAF:

METAR-TAF

Aéroports :

Station RAF de Northolt

Northolt, Angleterre

latitude: 51-33N, longitude: 000-25W, altitude: 38 m

Observation

Le bulletin a été fait il y a 1 heure et 26 minutes, à 00:50 UTC
Vent 1 kt de nord/nord-est
Température 1°C
Humidité 75%
Pression 1030 hPa
Visibilité 10 km ou plus

METAR: EGWU 170050Z AUTO 03001KT 9999 // NCD 01/M03 Q1030

Heure: 03:16 (02:16 UTC)

Prévision

Le bulletin a été fait il y a 6 heures et 24 minutes, à 19:52 UTC
Prévision valable du 16 à 21 UTC au 17 à 15 UTC
Vent 5 kt de est
Visibilité 10 km ou plus
pas de nuages en-dessous de 1500 mètres et pas de cumulonimbus.
Probabilité 30%
du 17 à 03 UTC au 17 à 07 UTC
Visibilité: 7000 m
brume

TAF: EGWU 161952Z 1621/1715 10005KT CAVOK PROB30 1703/1707 7000 BR

Observations et prévisions météorologiques de plus de 4000 aéroports (messages METAR et TAF).

Les stations disponibles sont représentées par des disques jaunes et rouges sur la carte.

Passer la souris dessus pour voir le nom de la station.

Cliquer dessus pour voir les observations et prévisions météorologiques.

Pour changer de carte: cliquez sur les boutons verts avec une croix noire pour zoomer, sur le bouton vert avec un tiret pour effectuer un zoom arrière, ou sur les flèches vertes pour les cartes adjacentes.


METAR-TAF: